Time;durP1;ratioP1;P1;durP2;ratioP2;P2;SDS_P1;SDS_P2;PMS_P1;PMS_P2;Temp;Humidity;BMP_temperature;BMP_pressure;BME280_temperature;BME280_humidity;BME280_pressure;Samples;Min_cycle;Max_cycle;Signal;HPM_P1;HPM_P2
2022/02/13 00:01:41;;;;;;;0.00;0.00;;;;;;;10.26;71.70;99794.72;7366510;19;20010;-59
2022/02/13 00:04:07;;;;;;;0.10;0.10;;;;;;;10.26;71.60;99784.28;7372221;19;20018;-59
2022/02/13 00:06:33;;;;;;;0.10;0.10;;;;;;;10.24;71.17;99781.75;7366554;19;20077;-59
2022/02/13 00:08:58;;;;;;;0.00;0.00;;;;;;;10.27;71.58;99783.38;7370073;19;20033;-59
2022/02/13 00:11:24;;;;;;;0.00;0.00;;;;;;;10.27;71.07;99781.59;7368000;19;20007;-60
2022/02/13 00:13:50;;;;;;;0.00;0.00;;;;;;;10.28;71.08;99785.06;7359101;19;20120;-59
2022/02/13 00:16:16;;;;;;;0.00;0.00;;;;;;;10.28;71.46;99777.25;7356555;19;20018;-58
2022/02/13 00:18:42;;;;;;;0.00;0.00;;;;;;;10.30;71.36;99772.84;7362269;19;20474;-59
2022/02/13 00:21:07;;;;;;;0.00;0.00;;;;;;;10.30;71.04;99775.44;7357237;19;20021;-57
2022/02/13 00:23:33;;;;;;;0.00;0.00;;;;;;;10.30;70.90;99770.22;7357515;19;20006;-59
2022/02/13 00:25:58;;;;;;;0.05;0.05;;;;;;;10.30;70.87;99768.47;7361830;19;20081;-60
2022/02/13 00:28:24;;;;;;;0.00;0.00;;;;;;;10.29;70.84;99764.16;7352304;19;20049;-60
2022/02/13 00:30:49;;;;;;;0.10;0.10;;;;;;;10.30;71.19;99762.41;7362224;19;20013;-60
2022/02/13 00:33:16;;;;;;;0.00;0.00;;;;;;;10.29;70.91;99758.94;7357150;19;20014;-59
2022/02/13 00:35:42;;;;;;;0.00;0.00;;;;;;;10.29;71.20;99758.94;7360953;19;20022;-59
2022/02/13 00:38:08;;;;;;;0.00;0.00;;;;;;;10.30;70.82;99749.34;7356703;19;20045;-59
2022/02/13 00:40:34;;;;;;;0.00;0.00;;;;;;;10.29;70.87;99752.84;7361324;19;20037;-60
2022/02/13 00:43:00;;;;;;;0.00;0.00;;;;;;;10.29;71.05;99745.00;7361721;19;20051;-59
2022/02/13 00:45:25;;;;;;;0.00;0.00;;;;;;;10.30;71.50;99741.53;7365030;19;20757;-59
2022/02/13 00:47:51;;;;;;;0.00;0.00;;;;;;;10.30;71.36;99738.91;7366531;19;20016;-59
2022/02/13 00:50:16;;;;;;;0.10;0.10;;;;;;;10.32;71.06;99747.53;7365685;19;20049;-60
2022/02/13 00:52:42;;;;;;;0.00;0.00;;;;;;;10.32;71.42;99737.09;7369629;19;20047;-59
2022/02/13 00:55:08;;;;;;;0.00;0.00;;;;;;;10.28;71.22;99719.84;7366724;19;20022;-60
2022/02/13 00:57:33;;;;;;;0.00;0.00;;;;;;;10.33;70.98;99713.53;7357762;19;20025;-59
2022/02/13 00:59:59;;;;;;;0.00;0.00;;;;;;;10.34;70.97;99706.56;7361146;19;20011;-59
2022/02/13 01:02:24;;;;;;;0.10;0.10;;;;;;;10.36;70.92;99708.22;7359790;19;20778;-59
2022/02/13 01:04:50;;;;;;;0.00;0.00;;;;;;;10.37;71.40;99703.84;7358671;19;20006;-60
2022/02/13 01:07:15;;;;;;;0.00;0.00;;;;;;;10.32;71.14;99677.06;7356351;19;20026;-59
2022/02/13 01:09:41;;;;;;;0.10;0.10;;;;;;;10.37;71.43;99675.13;7356931;19;20018;-60
2022/02/13 01:12:07;;;;;;;0.00;0.00;;;;;;;10.38;70.89;99676.81;7360572;19;20685;-59
2022/02/13 01:14:32;;;;;;;0.00;0.00;;;;;;;10.41;71.07;99668.03;7358772;19;20011;-60
2022/02/13 01:16:58;;;;;;;0.10;0.10;;;;;;;10.40;71.05;99664.59;7360539;19;20817;-59
2022/02/13 01:19:23;;;;;;;0.10;0.10;;;;;;;10.42;71.01;99664.53;7358402;19;20478;-60
2022/02/13 01:21:49;;;;;;;0.10;0.10;;;;;;;10.43;71.10;99651.41;7358726;19;20369;-60
2022/02/13 01:24:14;;;;;;;0.00;0.00;;;;;;;10.42;71.44;99641.03;7358803;19;20036;-59
2022/02/13 01:26:40;;;;;;;0.00;0.00;;;;;;;10.42;71.39;99631.44;7353505;19;20100;-59
2022/02/13 01:29:06;;;;;;;0.00;0.00;;;;;;;10.42;71.23;99618.38;7355986;19;20379;-60
2022/02/13 01:31:34;;;;;;;0.00;0.00;;;;;;;10.42;71.30;99618.38;7357746;19;20607;-60
2022/02/13 01:33:59;;;;;;;;;;;;;;;10.47;71.11;99619.06;7359436;19;20756;-59
2022/02/13 01:36:25;;;;;;;0.03;0.03;;;;;;;10.43;71.17;99604.41;7357134;19;20629;-60
2022/02/13 01:38:50;;;;;;;0.10;0.10;;;;;;;10.43;71.18;99598.34;7359033;19;20018;-59
2022/02/13 01:41:17;;;;;;;0.10;0.10;;;;;;;10.36;71.18;99592.53;7357324;19;20370;-59
2022/02/13 01:43:44;;;;;;;0.10;0.10;;;;;;;10.40;71.17;99588.91;7357299;19;20027;-59
2022/02/13 01:46:09;;;;;;;0.10;0.10;;;;;;;10.39;71.17;99579.34;7369192;19;20518;-60
2022/02/13 01:48:35;;;;;;;0.00;0.00;;;;;;;10.29;71.39;99559.75;7367618;19;20106;-60
2022/02/13 01:51:17;;;;;;;0.00;0.00;;;;;;;10.41;71.27;99569.72;4186256;19;10002241;-60
2022/02/13 01:53:46;;;;;;;0.10;0.10;;;;;;;10.38;70.96;99567.22;3490864;19;10002045;-59
2022/02/13 01:56:12;;;;;;;0.10;0.10;;;;;;;10.36;71.63;99562.06;2740000;19;10001782;-59
2022/02/13 01:58:38;;;;;;;0.03;0.03;;;;;;;10.38;71.22;99551.56;7361976;19;20006;-60
2022/02/13 02:01:04;;;;;;;0.00;0.00;;;;;;;10.37;71.04;99549.88;7360939;19;20017;-59
2022/02/13 02:03:29;;;;;;;0.03;0.03;;;;;;;10.38;71.33;99554.16;7363677;19;20596;-60
2022/02/13 02:05:55;;;;;;;0.00;0.00;;;;;;;10.35;71.43;99547.34;7361271;19;20033;-59
2022/02/13 02:08:20;;;;;;;0.00;0.00;;;;;;;10.36;71.23;99529.91;7359149;19;20014;-60
2022/02/13 02:10:49;;;;;;;0.10;0.10;;;;;;;10.37;71.37;99536.81;7353809;19;20508;-59
2022/02/13 02:13:15;;;;;;;0.10;0.10;;;;;;;10.30;71.30;99525.78;7360421;19;20015;-59
2022/02/13 02:15:40;;;;;;;0.00;0.00;;;;;;;10.33;71.13;99519.59;7358803;19;20038;-59
2022/02/13 02:18:06;;;;;;;0.00;0.00;;;;;;;10.32;71.21;99518.75;7358601;19;20070;-60
2022/02/13 02:20:31;;;;;;;0.00;0.00;;;;;;;10.30;71.23;99504.06;7359584;19;20331;-59
2022/02/13 02:22:57;;;;;;;0.00;0.00;;;;;;;10.30;71.58;99506.69;7359430;19;20006;-59
2022/02/13 02:25:23;;;;;;;0.00;0.00;;;;;;;10.29;71.47;99497.13;7359756;19;20007;-60
2022/02/13 02:27:48;;;;;;;0.00;0.00;;;;;;;10.18;71.08;99465.38;7366795;19;20019;-59
2022/02/13 02:30:14;;;;;;;0.00;0.00;;;;;;;10.31;71.27;99490.09;7369111;19;20047;-59
2022/02/13 02:32:39;;;;;;;0.08;0.08;;;;;;;10.31;71.07;99477.06;7369232;19;20017;-59
2022/02/13 02:35:06;;;;;;;0.00;0.00;;;;;;;10.23;71.42;99463.44;7372763;19;20015;-59
2022/02/13 02:37:31;;;;;;;0.00;0.00;;;;;;;10.24;71.19;99441.69;7365663;19;20110;-59
2022/02/13 02:39:57;;;;;;;0.00;0.00;;;;;;;10.30;71.04;99447.50;7368259;19;20533;-59
2022/02/13 02:42:23;;;;;;;0.00;0.00;;;;;;;10.22;71.55;99433.06;7360720;19;20058;-59
2022/02/13 02:44:48;;;;;;;0.00;0.00;;;;;;;10.31;71.34;99427.47;7358555;19;20337;-59
2022/02/13 02:47:14;;;;;;;0.00;0.00;;;;;;;10.19;71.57;99404.47;7362698;19;20060;-60
2022/02/13 02:49:39;;;;;;;0.00;0.00;;;;;;;10.31;71.18;99422.28;7359426;19;20014;-59
2022/02/13 02:52:05;;;;;;;0.00;0.00;;;;;;;10.30;71.00;99417.97;7358512;19;20018;-59
2022/02/13 02:54:31;;;;;;;0.00;0.00;;;;;;;10.30;71.12;99417.97;7362640;19;20006;-59
2022/02/13 02:56:57;;;;;;;0.10;0.10;;;;;;;10.30;71.42;99410.13;7358901;19;20017;-59
2022/02/13 02:59:23;;;;;;;0.00;0.00;;;;;;;10.28;71.39;99401.50;7353263;19;20734;-60
2022/02/13 03:01:48;;;;;;;0.00;0.00;;;;;;;10.30;71.33;99389.25;7355222;19;20007;-59
2022/02/13 03:04:14;;;;;;;0.10;0.10;;;;;;;10.31;71.15;99388.34;7365082;19;20014;-59
2022/02/13 03:06:41;;;;;;;0.00;0.00;;;;;;;10.31;70.86;99377.91;7357345;19;20022;-60
2022/02/13 03:09:07;;;;;;;0.00;0.00;;;;;;;10.31;70.94;99364.88;7363060;19;20017;-59
2022/02/13 03:11:33;;;;;;;0.00;0.00;;;;;;;10.28;70.94;99346.72;7363687;19;20470;-59
2022/02/13 03:13:58;;;;;;;0.05;0.05;;;;;;;10.31;71.43;99344.84;7364550;19;20017;-59
2022/02/13 03:16:23;;;;;;;0.00;0.00;;;;;;;10.32;71.12;99324.81;7360648;19;20002;-59
2022/02/13 03:18:49;;;;;;;0.00;0.00;;;;;;;10.34;71.14;99320.34;7365923;19;20701;-59
2022/02/13 03:21:14;;;;;;;0.10;0.10;;;;;;;10.35;71.20;99317.69;7367367;19;20025;-60
2022/02/13 03:23:40;;;;;;;0.00;0.00;;;;;;;10.35;71.18;99309.03;7371912;19;20015;-59
2022/02/13 03:26:05;;;;;;;0.10;0.10;;;;;;;10.37;70.81;99296.75;7364797;19;20014;-58
2022/02/13 03:28:31;;;;;;;0.00;0.00;;;;;;;10.38;70.75;99290.59;7359389;19;20010;-60
2022/02/13 03:30:56;;;;;;;0.00;0.00;;;;;;;10.36;71.14;99275.03;7365384;19;20034;-60
2022/02/13 03:33:22;;;;;;;0.00;0.00;;;;;;;10.40;71.32;99275.75;7359534;19;20367;-60
2022/02/13 03:35:47;;;;;;;0.00;0.00;;;;;;;10.39;71.21;99268.81;7354541;19;20679;-59
2022/02/13 03:38:14;;;;;;;0.10;0.10;;;;;;;10.42;71.55;99250.41;7357367;19;20014;-59
2022/02/13 03:40:39;;;;;;;0.00;0.00;;;;;;;10.42;71.36;99245.19;7362120;19;20102;-60
2022/02/13 03:43:06;;;;;;;0.03;0.03;;;;;;;10.43;70.99;99233.84;7362664;19;20052;-60
2022/02/13 03:45:32;;;;;;;0.00;0.00;;;;;;;10.45;71.18;99226.81;7357199;19;20031;-59
2022/02/13 03:47:58;;;;;;;0.00;0.00;;;;;;;10.45;71.57;99205.94;7364175;19;20010;-59
2022/02/13 03:50:23;;;;;;;0.10;0.10;;;;;;;10.45;71.76;99203.31;7320492;19;47865;-59
2022/02/13 03:52:49;;;;;;;0.10;0.10;;;;;;;10.48;71.78;99200.53;1112974;19;10002129;-59
2022/02/13 03:55:16;;;;;;;0.00;0.00;;;;;;;10.48;71.51;99184.88;7361905;19;20030;-60
2022/02/13 03:57:42;;;;;;;0.10;0.10;;;;;;;10.48;71.59;99171.84;7361138;19;20033;-60
2022/02/13 04:00:09;;;;;;;0.00;0.00;;;;;;;10.48;72.12;99179.66;7364691;19;20077;-60
2022/02/13 04:02:35;;;;;;;0.00;0.00;;;;;;;10.49;72.17;99181.38;7359843;19;20018;-59
2022/02/13 04:05:00;;;;;;;0.00;0.00;;;;;;;10.48;72.49;99174.44;7353368;19;20418;-59
2022/02/13 04:07:28;;;;;;;0.00;0.00;;;;;;;10.43;73.06;99166.00;7354302;19;20014;-60
2022/02/13 04:09:55;;;;;;;0.00;0.00;;;;;;;10.44;73.59;99157.28;7361228;19;20060;-59
2022/02/13 04:12:20;;;;;;;0.00;0.00;;;;;;;10.40;73.68;99150.50;7357446;19;20021;-60
2022/02/13 04:14:46;;;;;;;0.00;0.00;;;;;;;10.36;73.71;99125.47;7362666;19;20007;-60
2022/02/13 04:17:11;;;;;;;0.00;0.00;;;;;;;10.34;73.84;99114.22;7365361;19;20014;-60
2022/02/13 04:19:37;;;;;;;0.00;0.00;;;;;;;10.32;73.70;99110.84;7362456;19;20014;-60
2022/02/13 04:22:03;;;;;;;0.00;0.00;;;;;;;10.30;74.21;99108.31;7368115;19;20027;-59
2022/02/13 04:24:28;;;;;;;0.05;0.05;;;;;;;10.29;74.20;99105.78;7362881;19;20042;-60
2022/02/13 04:26:53;;;;;;;0.00;0.00;;;;;;;10.25;73.94;99097.25;7365044;19;20006;-60
2022/02/13 04:29:20;;;;;;;0.03;0.03;;;;;;;10.26;74.03;99092.88;7364601;19;20604;-59
2022/02/13 04:31:46;;;;;;;0.00;0.00;;;;;;;10.26;74.07;99085.06;7364144;19;20453;-59
2022/02/13 04:34:12;;;;;;;0.00;0.00;;;;;;;10.24;74.19;99081.66;7362269;19;20011;-60
2022/02/13 04:36:37;;;;;;;0.00;0.00;;;;;;;10.22;74.30;99078.25;7364886;19;20684;-59
2022/02/13 04:39:04;;;;;;;0.00;0.00;;;;;;;10.19;74.74;99073.19;7357771;19;20018;-59
2022/02/13 04:41:30;;;;;;;0.00;0.00;;;;;;;10.13;75.58;99064.72;7365440;19;20017;-60
2022/02/13 04:43:55;;;;;;;0.00;0.00;;;;;;;10.09;75.46;99052.75;7365304;19;20626;-61
2022/02/13 04:46:21;;;;;;;0.00;0.00;;;;;;;10.05;75.98;99051.22;7362380;19;20350;-61
2022/02/13 04:48:46;;;;;;;0.00;0.00;;;;;;;10.02;75.89;99040.91;7363897;19;20049;-61
2022/02/13 04:51:11;;;;;;;0.00;0.00;;;;;;;9.98;76.50;99028.94;7361779;19;20043;-61
2022/02/13 04:53:37;;;;;;;0.00;0.00;;;;;;;9.88;76.82;99002.47;7363196;19;20019;-60
2022/02/13 04:56:04;;;;;;;0.08;0.08;;;;;;;9.93;76.53;99010.03;7360379;19;20093;-61
2022/02/13 04:58:34;;;;;;;0.00;0.00;;;;;;;9.92;77.41;99004.91;7362986;19;20017;-61
2022/02/13 05:00:59;;;;;;;0.10;0.10;;;;;;;9.88;77.57;98988.56;7363945;19;20018;-61
2022/02/13 05:03:25;;;;;;;0.00;0.00;;;;;;;9.78;77.75;98974.28;7361121;19;20351;-62
2022/02/13 05:05:51;;;;;;;0.00;0.00;;;;;;;9.88;77.99;98992.03;7362440;19;20006;-60
2022/02/13 05:08:17;;;;;;;0.00;0.00;;;;;;;9.86;78.40;98972.16;7363851;19;20017;-61
2022/02/13 05:10:43;;;;;;;0.10;0.10;;;;;;;9.88;78.33;98962.50;7348294;19;20018;-61
2022/02/13 05:13:08;;;;;;;0.00;0.00;;;;;;;9.89;77.72;98953.78;7358292;19;20479;-61
2022/02/13 05:15:34;;;;;;;0.10;0.10;;;;;;;9.77;78.51;98925.66;7359353;19;20019;-61
2022/02/13 05:17:59;;;;;;;0.00;0.00;;;;;;;9.89;78.11;98930.31;7354931;19;20025;-61
2022/02/13 05:20:25;;;;;;;0.00;0.00;;;;;;;9.87;78.31;98900.84;7362223;19;20025;-61
2022/02/13 05:22:50;;;;;;;0.10;0.10;;;;;;;9.91;78.74;98884.13;7370302;19;20036;-61
2022/02/13 05:25:16;;;;;;;0.10;0.10;;;;;;;9.92;78.76;98878.00;7368938;19;20102;-60
2022/02/13 05:27:41;;;;;;;0.10;0.10;;;;;;;9.82;78.94;98861.13;7362555;19;20027;-61
2022/02/13 05:30:07;;;;;;;0.10;0.10;;;;;;;9.94;78.96;98880.56;7369754;19;20018;-61
2022/02/13 05:32:33;;;;;;;0.00;0.00;;;;;;;9.95;79.12;98875.25;7365851;19;20010;-60
2022/02/13 05:34:58;;;;;;;0.00;0.00;;;;;;;9.96;79.33;98858.69;7366526;19;20018;-61
2022/02/13 05:37:24;;;;;;;0.00;0.00;;;;;;;9.98;79.62;98820.31;7368376;19;20102;-61
2022/02/13 05:40:03;;;;;;;0.10;0.10;;;;;;;10.03;78.74;98818.31;1742270;19;10022930;-61
2022/02/13 05:42:28;;;;;;;0.00;0.00;;;;;;;10.02;79.50;98828.84;7265081;19;2004362;-59
2022/02/13 05:44:54;;;;;;;0.00;0.00;;;;;;;10.04;79.50;98804.41;7365076;19;20556;-61
2022/02/13 05:47:20;;;;;;;0.00;0.00;;;;;;;10.04;79.64;98796.56;7371567;19;20113;-61
2022/02/13 05:49:46;;;;;;;0.00;0.00;;;;;;;10.07;79.97;98790.34;7373137;19;20017;-61
2022/02/13 05:52:12;;;;;;;0.00;0.00;;;;;;;10.09;79.82;98783.31;7375596;19;20070;-61
2022/02/13 05:54:37;;;;;;;0.00;0.00;;;;;;;10.09;80.28;98773.72;7367632;19;20003;-61
2022/02/13 05:57:03;;;;;;;0.00;0.00;;;;;;;9.98;80.03;98742.09;7368364;19;20006;-61
2022/02/13 05:59:29;;;;;;;0.00;0.00;;;;;;;10.14;80.28;98747.41;7374112;19;20006;-61
2022/02/13 06:01:55;;;;;;;0.00;0.00;;;;;;;10.11;79.84;98732.72;7367899;19;20014;-61
2022/02/13 06:04:24;;;;;;;0.00;0.00;;;;;;;10.18;80.21;98742.84;7361970;19;20584;-61
2022/02/13 06:06:53;;;;;;;0.00;0.00;;;;;;;10.21;80.03;98737.47;7364731;19;20006;-61
2022/02/13 06:09:21;;;;;;;0.00;0.00;;;;;;;10.23;80.26;98735.63;7366768;19;20018;-61
2022/02/13 06:11:48;;;;;;;0.10;0.10;;;;;;;10.22;80.10;98702.63;7341226;19;20006;-61
2022/02/13 06:14:14;;;;;;;0.10;0.10;;;;;;;10.23;80.17;98675.63;7364711;19;20010;-61
2022/02/13 06:16:39;;;;;;;0.00;0.00;;;;;;;10.23;79.98;98663.41;7366147;19;20006;-61
2022/02/13 06:19:06;;;;;;;0.00;0.00;;;;;;;10.24;79.99;98654.72;7368312;19;20030;-61
2022/02/13 06:21:32;;;;;;;0.00;0.00;;;;;;;10.23;79.75;98652.97;7365882;19;20035;-61
2022/02/13 06:23:58;;;;;;;0.00;0.00;;;;;;;10.22;79.78;98640.03;7362688;19;20007;-61
2022/02/13 06:26:24;;;;;;;0.00;0.00;;;;;;;10.21;80.27;98638.34;7366223;19;20426;-61
2022/02/13 06:28:50;;;;;;;0.03;0.03;;;;;;;10.19;79.95;98633.22;7365763;19;20587;-62
2022/02/13 06:31:15;;;;;;;0.00;0.00;;;;;;;10.20;80.30;98642.72;7367737;19;20102;-61
2022/02/13 06:33:41;;;;;;;0.00;0.00;;;;;;;10.13;80.10;98636.97;7372199;19;20002;-62
2022/02/13 06:36:07;;;;;;;0.08;0.08;;;;;;;10.20;80.62;98653.16;7372123;19;20017;-61
2022/02/13 06:38:33;;;;;;;0.00;0.00;;;;;;;10.21;80.79;98623.53;7364502;19;20092;-61
2022/02/13 06:40:58;;;;;;;0.00;0.00;;;;;;;10.22;80.58;98600.91;7372089;19;20654;-61
2022/02/13 06:43:23;;;;;;;0.03;0.03;;;;;;;10.24;81.07;98593.84;7369809;19;20078;-61
2022/02/13 06:45:49;;;;;;;0.10;0.10;;;;;;;10.25;80.94;98572.09;7371303;19;20496;-61
2022/02/13 06:48:15;;;;;;;0.00;0.00;;;;;;;10.30;80.59;98554.41;7363805;19;20077;-61
2022/02/13 06:50:40;;;;;;;0.03;0.03;;;;;;;10.31;80.74;98545.66;7368931;19;20017;-61
2022/02/13 06:53:06;;;;;;;0.10;0.10;;;;;;;10.22;80.86;98527.88;7367498;19;20018;-62
2022/02/13 06:55:32;;;;;;;0.05;0.05;;;;;;;10.26;80.17;98532.03;7364169;19;20011;-61
2022/02/13 06:57:58;;;;;;;0.00;0.00;;;;;;;10.25;80.49;98525.13;7369545;19;20445;-61
2022/02/13 07:00:24;;;;;;;0.10;0.10;;;;;;;10.35;80.69;98531.53;7368927;19;20367;-62
2022/02/13 07:02:49;;;;;;;0.00;0.00;;;;;;;10.35;80.86;98531.53;7363740;19;20010;-61
2022/02/13 07:05:15;;;;;;;0.00;0.00;;;;;;;10.36;80.73;98538.41;7363373;19;20013;-62
2022/02/13 07:07:41;;;;;;;0.10;0.10;;;;;;;10.37;80.89;98534.88;7363401;19;20588;-61
2022/02/13 07:10:10;;;;;;;0.10;0.10;;;;;;;10.38;80.62;98526.94;7364680;19;20466;-62
2022/02/13 07:12:35;;;;;;;0.00;0.00;;;;;;;10.39;80.09;98499.09;7368897;19;20366;-61
2022/02/13 07:15:01;;;;;;;0.00;0.00;;;;;;;10.32;79.65;98521.25;7361183;19;20006;-60
2022/02/13 07:17:27;;;;;;;0.10;0.10;;;;;;;10.40;79.40;98513.84;7363478;19;20011;-60
2022/02/13 07:19:52;;;;;;;0.00;0.00;;;;;;;10.39;79.77;98523.44;7366440;19;20078;-61
2022/02/13 07:22:18;;;;;;;0.00;0.00;;;;;;;10.39;79.24;98512.13;7365752;19;20003;-60
2022/02/13 07:24:44;;;;;;;0.08;0.08;;;;;;;10.38;79.04;98511.28;7363311;19;20033;-60
2022/02/13 07:27:09;;;;;;;0.05;0.05;;;;;;;10.36;79.34;98512.31;7370251;19;20018;-60
2022/02/13 07:29:35;;;;;;;0.00;0.00;;;;;;;10.32;78.85;98510.81;7371800;19;20077;-61
2022/02/13 07:32:03;;;;;;;0.00;0.00;;;;;;;10.30;79.24;98513.50;7363251;19;20025;-61
2022/02/13 07:34:29;;;;;;;0.00;0.00;;;;;;;10.27;79.56;98497.19;7366063;19;20017;-61
2022/02/13 07:37:01;;;;;;;0.00;0.00;;;;;;;10.25;78.86;98499.06;7364446;19;20010;-61
2022/02/13 07:39:30;;;;;;;0.00;0.00;;;;;;;10.22;79.21;98505.22;7360622;19;20671;-61
2022/02/13 07:41:56;;;;;;;0.10;0.10;;;;;;;10.10;78.71;98491.13;7363185;19;20006;-61
2022/02/13 07:44:26;;;;;;;0.08;0.08;;;;;;;10.05;78.72;98472.28;7362045;19;20454;-60
2022/02/13 07:46:52;;;;;;;0.00;0.00;;;;;;;10.04;79.29;98469.78;7362193;19;20017;-61
2022/02/13 07:49:18;;;;;;;0.00;0.00;;;;;;;9.92;79.02;98455.66;7356792;19;20010;-61
2022/02/13 07:51:43;;;;;;;0.00;0.00;;;;;;;10.04;78.90;98486.25;7363558;19;20012;-61
2022/02/13 07:54:09;;;;;;;0.00;0.00;;;;;;;9.99;78.96;98485.69;7360735;19;20097;-61
2022/02/13 07:56:34;;;;;;;0.00;0.00;;;;;;;9.94;79.12;98490.31;7362428;19;20040;-60
2022/02/13 07:59:00;;;;;;;0.00;0.00;;;;;;;9.87;79.47;98462.88;7357878;19;20031;-63
2022/02/13 08:01:25;;;;;;;0.00;0.00;;;;;;;9.90;79.51;98483.56;7361739;19;20014;-61
2022/02/13 08:03:51;;;;;;;0.05;0.05;;;;;;;9.87;79.19;98478.53;7365214;19;20045;-61
2022/02/13 08:06:18;;;;;;;0.00;0.00;;;;;;;9.85;79.22;98478.63;7350470;19;20045;-61
2022/02/13 08:08:45;;;;;;;0.00;0.00;;;;;;;9.74;79.15;98451.47;7360368;19;20010;-61
2022/02/13 08:11:10;;;;;;;0.03;0.03;;;;;;;9.79;79.28;98467.69;7362647;19;20032;-62
2022/02/13 08:13:36;;;;;;;0.00;0.00;;;;;;;9.78;79.48;98458.16;7354546;19;20010;-62
2022/02/13 08:16:02;;;;;;;0.00;0.00;;;;;;;9.76;79.37;98455.66;7358946;19;20010;-61
2022/02/13 08:18:28;;;;;;;0.00;0.00;;;;;;;9.77;79.62;98472.13;7362364;19;20010;-61
2022/02/13 08:20:54;;;;;;;0.10;0.10;;;;;;;9.75;79.58;98458.34;7372226;19;20006;-61
2022/02/13 08:23:21;;;;;;;0.00;0.00;;;;;;;9.74;79.42;98447.09;7364190;19;20007;-61
2022/02/13 08:25:48;;;;;;;0.00;0.00;;;;;;;9.74;79.53;98446.25;7370857;19;20022;-62
2022/02/13 08:28:14;;;;;;;0.00;0.00;;;;;;;9.67;80.00;98434.47;7365996;19;20007;-62
2022/02/13 08:30:43;;;;;;;0.10;0.10;;;;;;;9.74;79.75;98441.03;7353943;19;20019;-62
2022/02/13 08:33:09;;;;;;;0.00;0.00;;;;;;;9.74;79.81;98446.25;7362717;19;20019;-61
2022/02/13 08:35:34;;;;;;;0.00;0.00;;;;;;;9.74;79.70;98441.03;7361578;19;20465;-62
2022/02/13 08:38:01;;;;;;;0.00;0.00;;;;;;;9.77;79.92;98430.44;7361019;19;20010;-62
2022/02/13 08:40:31;;;;;;;0.00;0.00;;;;;;;9.68;79.84;98407.47;7363258;19;20040;-62
2022/02/13 08:42:58;;;;;;;0.08;0.08;;;;;;;9.79;79.94;98418.16;7359313;19;20022;-62
2022/02/13 08:45:31;;;;;;;0.00;0.00;;;;;;;9.82;79.96;98417.97;7361823;19;20723;-62
2022/02/13 08:47:56;;;;;;;0.00;0.00;;;;;;;9.83;79.77;98417.03;7358944;19;20790;-62
2022/02/13 08:50:24;;;;;;;0.00;0.00;;;;;;;9.82;79.89;98404.94;7362770;19;20018;-63
2022/02/13 08:52:50;;;;;;;0.10;0.10;;;;;;;9.86;79.86;98414.28;7358358;19;20013;-62
2022/02/13 08:55:15;;;;;;;0.10;0.10;;;;;;;9.78;79.79;98395.63;7364192;19;20014;-61
2022/02/13 08:57:42;;;;;;;0.00;0.00;;;;;;;9.85;79.86;98399.56;7357029;19;20011;-62
2022/02/13 09:00:09;;;;;;;0.10;0.10;;;;;;;9.85;80.04;98396.97;7360930;19;20084;-62
2022/02/13 09:02:34;;;;;;;0.00;0.00;;;;;;;9.90;80.01;98396.72;7357706;19;20027;-61
2022/02/13 09:05:04;;;;;;;0.10;0.10;;;;;;;9.96;80.30;98398.97;7362343;19;20018;-62
2022/02/13 09:07:30;;;;;;;0.00;0.00;;;;;;;10.00;80.02;98398.69;7368137;19;20015;-62
2022/02/13 09:09:56;;;;;;;0.05;0.05;;;;;;;10.02;79.77;98394.22;7366894;19;20014;-62
2022/02/13 09:12:22;;;;;;;0.00;0.00;;;;;;;10.06;80.31;98394.91;7368230;19;20089;-61
2022/02/13 09:14:48;;;;;;;0.00;0.00;;;;;;;10.07;80.06;98384.38;7370070;19;20018;-62
2022/02/13 09:17:15;;;;;;;0.00;0.00;;;;;;;10.10;79.88;98379.00;7359353;19;20006;-61
2022/02/13 09:19:40;;;;;;;0.00;0.00;;;;;;;10.11;80.26;98362.41;7354374;19;20050;-62
2022/02/13 09:22:07;;;;;;;0.00;0.00;;;;;;;10.13;80.17;98364.91;7359096;19;20007;-62
2022/02/13 09:24:33;;;;;;;0.00;0.00;;;;;;;10.18;80.05;98372.47;7358688;19;20419;-61
2022/02/13 09:26:59;;;;;;;0.10;0.10;;;;;;;10.21;80.49;98361.88;7358500;19;20437;-62
2022/02/13 09:29:24;;;;;;;0.00;0.00;;;;;;;10.24;80.56;98357.38;7360013;19;20007;-62
2022/02/13 09:31:49;;;;;;;0.00;0.00;;;;;;;10.28;80.37;98358.00;7347833;19;20014;-61
2022/02/13 09:34:18;;;;;;;0.10;0.10;;;;;;;10.31;80.51;98353.44;7359011;19;20920;-61
2022/02/13 09:36:45;;;;;;;0.03;0.03;;;;;;;10.33;80.58;98341.16;7350770;19;20014;-62
2022/02/13 09:39:11;;;;;;;0.10;0.10;;;;;;;10.39;80.58;98339.94;7361238;19;20014;-61
2022/02/13 09:41:39;;;;;;;0.00;0.00;;;;;;;10.38;80.48;98322.63;7354663;19;20045;-62
2022/02/13 09:44:04;;;;;;;0.00;0.00;;;;;;;10.48;80.44;98328.13;7342822;19;20049;-62
2022/02/13 09:46:30;;;;;;;0.00;0.00;;;;;;;10.52;80.43;98325.25;7360457;19;20010;-62
2022/02/13 09:48:56;;;;;;;0.00;0.00;;;;;;;10.58;80.21;98326.63;7351452;19;20113;-61
2022/02/13 09:51:21;;;;;;;0.00;0.00;;;;;;;10.61;80.24;98316.84;7361934;19;20446;-62
2022/02/13 09:53:47;;;;;;;0.10;0.10;;;;;;;10.65;80.03;98320.97;7354492;19;20078;-62
2022/02/13 09:56:12;;;;;;;0.00;0.00;;;;;;;10.72;80.14;98320.59;7356088;19;20018;-62
2022/02/13 09:58:38;;;;;;;0.00;0.00;;;;;;;10.75;80.14;98309.97;7357501;19;20002;-61
2022/02/13 10:01:08;;;;;;;0.00;0.00;;;;;;;10.79;80.10;98295.75;7355095;19;21459;-62
2022/02/13 10:03:38;;;;;;;0.00;0.00;;;;;;;10.86;80.34;98281.41;7345695;19;20056;-62
2022/02/13 10:06:12;;;;;;;0.00;0.00;;;;;;;10.89;80.26;98286.44;5565254;19;10020663;-61
2022/02/13 10:08:49;;;;;;;0.10;0.10;;;;;;;10.94;79.84;98268.69;3244683;19;10002427;-61
2022/02/13 10:11:29;;;;;;;0.10;0.10;;;;;;;11.00;79.99;98270.09;7365760;19;20031;-62
2022/02/13 10:14:14;;;;;;;0.00;0.00;;;;;;;11.03;80.12;98270.75;7356373;19;20021;-62
2022/02/13 10:16:43;;;;;;;0.00;0.00;;;;;;;11.06;79.79;98257.50;7366165;19;20122;-62
2022/02/13 10:19:09;;;;;;;0.10;0.10;;;;;;;11.10;79.87;98261.59;7368084;19;20121;-61
2022/02/13 10:21:55;;;;;;;0.10;0.10;;;;;;;11.16;80.00;98261.19;7358137;19;20019;-62
2022/02/13 10:24:26;;;;;;;0.00;0.00;;;;;;;11.24;79.91;98265.91;7366370;19;20366;-62
2022/02/13 10:27:12;;;;;;;0.03;0.03;;;;;;;11.31;79.60;98266.38;7364057;19;20014;-61
2022/02/13 10:29:44;;;;;;;0.00;0.00;;;;;;;11.35;79.75;98257.38;7363021;19;20022;-62
2022/02/13 10:32:34;;;;;;;0.00;0.00;;;;;;;11.45;79.96;98263.69;7355396;19;20037;-62
2022/02/13 10:35:09;;;;;;;0.00;0.00;;;;;;;11.48;79.70;98260.88;7362763;19;20011;-62
2022/02/13 10:37:38;;;;;;;0.00;0.00;;;;;;;11.56;79.60;98256.00;7359812;19;20029;-61
2022/02/13 10:40:05;;;;;;;0.10;0.10;;;;;;;11.63;79.47;98241.56;7349907;19;20815;-62
2022/02/13 10:42:31;;;;;;;0.00;0.00;;;;;;;11.67;79.81;98237.81;7363722;19;20014;-61
2022/02/13 10:45:27;;;;;;;0.10;0.10;;;;;;;11.77;79.30;98229.38;7359793;19;20548;-62
2022/02/13 10:47:59;;;;;;;0.00;0.00;;;;;;;11.88;79.41;98227.72;7261449;19;2004819;-61
2022/02/13 10:50:26;;;;;;;0.00;0.00;;;;;;;11.94;79.68;98229.94;7374981;19;20017;-62
2022/02/13 10:52:55;;;;;;;0.10;0.10;;;;;;;12.01;79.50;98219.03;7365083;19;20433;-62
2022/02/13 10:55:20;;;;;;;0.00;0.00;;;;;;;12.08;79.05;98215.09;7363856;19;20421;-62
2022/02/13 10:57:46;;;;;;;0.10;0.10;;;;;;;12.13;79.01;98210.38;7359895;19;20752;-62
2022/02/13 11:00:14;;;;;;;0.10;0.10;;;;;;;12.15;79.16;98195.41;7351211;19;20006;-62
2022/02/13 11:02:40;;;;;;;0.00;0.00;;;;;;;12.20;78.88;98191.50;7367911;19;20405;-62
2022/02/13 11:05:09;;;;;;;0.00;0.00;;;;;;;12.23;78.83;98177.41;7362992;19;20345;-62
2022/02/13 11:07:40;;;;;;;0.10;0.10;;;;;;;12.31;79.07;98190.75;7357344;19;20009;-61
2022/02/13 11:10:09;;;;;;;0.10;0.10;;;;;;;12.37;78.72;98185.13;7362512;19;20006;-61
2022/02/13 11:12:35;;;;;;;0.00;0.00;;;;;;;12.36;78.52;98182.59;7362646;19;20012;-61
2022/02/13 11:15:18;;;;;;;0.00;0.00;;;;;;;12.43;78.62;98187.31;7358983;19;20105;-62
2022/02/13 11:17:46;;;;;;;0.10;0.10;;;;;;;12.39;78.35;98182.41;7362623;19;20009;-62
2022/02/13 11:20:14;;;;;;;0.10;0.10;;;;;;;12.38;77.70;98186.78;7362792;19;20074;-61
2022/02/13 11:22:40;;;;;;;0.00;0.00;;;;;;;12.27;77.50;98173.63;7364969;19;20003;-62
2022/02/13 11:25:06;;;;;;;0.10;0.10;;;;;;;12.28;77.38;98191.00;7363812;19;20014;-62
2022/02/13 11:27:52;;;;;;;0.10;0.10;;;;;;;12.26;77.34;98186.81;7363069;19;20011;-62
2022/02/13 11:30:55;;;;;;;0.03;0.03;;;;;;;12.19;77.58;98195.09;7346414;19;20078;-61
2022/02/13 11:33:23;;;;;;;0.10;0.10;;;;;;;12.09;77.58;98196.66;7252776;19;2004336;-61